Time;durP1;ratioP1;P1;durP2;ratioP2;P2;SDS_P1;SDS_P2;PMS_P1;PMS_P2;Temp;Humidity;BMP_temperature;BMP_pressure;BME280_temperature;BME280_humidity;BME280_pressure;Samples;Min_cycle;Max_cycle;Signal;HPM_P1;HPM_P2
2021/03/06 00:00:21;;;;;;;15.07;6.90;;;;;;;3.65;67.31;100665.46;125622;1099;104245;-76
2021/03/06 00:03:10;;;;;;;13.13;6.27;;;;;;;3.62;65.62;100670.45;125642;1099;104696;-76
2021/03/06 00:05:39;;;;;;;14.53;6.73;;;;;;;3.63;65.52;100679.12;125637;1099;104173;-76
2021/03/06 00:08:08;;;;;;;15.17;6.67;;;;;;;3.65;66.05;100696.60;125631;1099;104165;-76
2021/03/06 00:10:37;;;;;;;14.00;6.53;;;;;;;3.65;66.67;100690.53;125652;1099;104267;-76
2021/03/06 00:13:06;;;;;;;15.97;6.90;;;;;;;3.60;66.57;100693.70;125661;1098;104172;-76
2021/03/06 00:15:35;;;;;;;10.73;5.73;;;;;;;3.58;66.61;100695.31;125630;1099;104348;-76
2021/03/06 00:18:04;;;;;;;15.07;6.73;;;;;;;3.54;66.73;100700.19;125640;1099;104220;-76
2021/03/06 00:20:33;;;;;;;13.17;5.80;;;;;;;3.50;66.67;100706.84;125615;1099;104178;-76
2021/03/06 00:23:02;;;;;;;12.33;5.60;;;;;;;3.52;66.33;100712.13;125664;1099;104676;-76
2021/03/06 00:25:32;;;;;;;11.80;5.60;;;;;;;3.56;66.23;100720.23;125650;1099;104172;-76
2021/03/06 00:28:01;;;;;;;11.87;5.77;;;;;;;3.55;66.66;100697.70;125633;1099;104163;-76
2021/03/06 00:30:30;;;;;;;10.60;5.50;;;;;;;3.54;66.38;100698.48;125610;1099;104322;-76
2021/03/06 00:32:59;;;;;;;11.13;5.33;;;;;;;3.50;66.40;100703.36;125658;1099;104369;-76
2021/03/06 00:35:28;;;;;;;14.20;5.80;;;;;;;3.47;66.58;100706.64;125631;1099;104679;-77
2021/03/06 00:37:56;;;;;;;10.90;5.30;;;;;;;3.42;67.05;100729.67;125674;1099;104223;-77
2021/03/06 00:40:27;;;;;;;12.10;5.27;;;;;;;3.40;67.27;100740.77;125598;1097;104317;-77
2021/03/06 00:42:56;;;;;;;14.03;6.30;;;;;;;3.37;66.62;100733.66;125617;1099;104281;-76
2021/03/06 00:45:25;;;;;;;10.90;5.33;;;;;;;3.35;66.74;100734.34;125592;1099;104214;-77
2021/03/06 00:47:54;;;;;;;11.63;5.87;;;;;;;3.35;66.29;100743.05;125613;1098;104293;-76
2021/03/06 00:50:29;;;;;;;12.80;6.10;;;;;;;3.38;67.13;100743.25;125627;1099;104227;-76
2021/03/06 00:52:57;;;;;;;;;;;;;;;3.35;67.65;100735.26;125664;1099;104229;-76
2021/03/06 00:55:26;;;;;;;14.90;7.10;;;;;;;3.33;66.58;100738.53;125612;1099;104219;-76
2021/03/06 00:57:57;;;;;;;13.80;6.30;;;;;;;3.31;67.10;100745.32;125597;1099;104214;-75
2021/03/06 01:00:29;;;;;;;17.35;6.85;;;;;;;3.34;66.73;100730.86;125627;1099;104296;-76
2021/03/06 01:02:59;;;;;;;15.57;6.73;;;;;;;3.31;67.20;100753.10;125638;1099;104207;-76
2021/03/06 01:05:28;;;;;;;17.70;6.60;;;;;;;3.27;66.70;100754.56;125616;1099;104190;-76
2021/03/06 01:07:57;;;;;;;13.70;6.00;;;;;;;3.28;66.78;100750.30;125630;1099;104299;-76
2021/03/06 01:10:29;;;;;;;17.03;6.53;;;;;;;3.27;67.35;100753.67;125651;1099;104169;-76
2021/03/06 01:13:00;;;;;;;15.30;6.10;;;;;;;3.23;67.39;100755.17;125599;1099;104297;-76
2021/03/06 01:15:32;;;;;;;14.07;5.50;;;;;;;3.23;67.32;100757.76;125596;1099;104217;-76
2021/03/06 01:18:05;;;;;;;17.13;5.33;;;;;;;3.19;66.68;100748.84;125645;1099;104181;-77
2021/03/06 01:20:42;;;;;;;13.67;5.50;;;;;;;3.20;66.60;100753.25;125561;1098;104383;-76
2021/03/06 01:23:13;;;;;;;10.33;4.57;;;;;;;3.26;67.29;100749.27;125637;1099;104651;-76
2021/03/06 01:25:44;;;;;;;12.63;4.97;;;;;;;3.24;66.81;100763.05;125583;1098;104171;-76
2021/03/06 01:28:17;;;;;;;13.33;5.00;;;;;;;3.23;67.43;100737.02;125640;1098;104248;-76
2021/03/06 01:30:49;;;;;;;9.07;4.47;;;;;;;3.22;67.29;100749.05;125668;1099;104303;-76
2021/03/06 01:33:20;;;;;;;8.83;3.87;;;;;;;3.21;66.61;100747.28;125650;1097;104271;-76
2021/03/06 01:35:52;;;;;;;8.45;4.08;;;;;;;3.17;67.02;100742.66;125585;1099;104178;-76
2021/03/06 01:38:22;;;;;;;8.80;3.83;;;;;;;3.19;66.96;100760.92;125626;1099;104300;-76
2021/03/06 01:40:55;;;;;;;9.87;4.47;;;;;;;3.16;67.14;100769.37;125693;1099;104198;-76
2021/03/06 01:43:28;;;;;;;7.90;4.17;;;;;;;3.16;67.00;100771.97;125658;1099;104301;-76
2021/03/06 01:45:57;;;;;;;11.37;4.17;;;;;;;3.15;66.93;100774.49;125587;1099;104268;-76
2021/03/06 01:48:26;;;;;;;8.40;4.03;;;;;;;3.14;66.74;100775.27;125658;1099;104211;-76
2021/03/06 01:50:55;;;;;;;9.73;3.87;;;;;;;3.13;66.47;100778.65;125611;1098;104242;-76
2021/03/06 01:53:25;;;;;;;8.17;3.60;;;;;;;3.12;67.16;100784.65;125650;1099;104176;-75
2021/03/06 01:55:55;;;;;;;8.43;3.80;;;;;;;3.06;67.20;100790.30;125595;1099;104179;-77
2021/03/06 01:58:27;;;;;;;9.20;3.77;;;;;;;3.05;66.70;100783.30;125645;1099;107947;-76
2021/03/06 02:00:56;;;;;;;9.03;4.20;;;;;;;3.01;67.10;100766.63;125643;1099;104233;-78
2021/03/06 02:03:26;;;;;;;11.57;4.30;;;;;;;3.03;66.71;100785.78;125633;1099;104274;-75
2021/03/06 02:05:55;;;;;;;8.70;4.10;;;;;;;3.04;66.99;100795.38;125656;1099;104296;-76
2021/03/06 02:08:24;;;;;;;10.30;4.30;;;;;;;3.04;66.80;100776.33;125634;1099;104941;-76
2021/03/06 02:10:53;;;;;;;9.67;4.17;;;;;;;3.04;67.09;100786.70;125612;1099;104271;-76
2021/03/06 02:13:45;;;;;;;8.10;3.93;;;;;;;3.04;66.10;100805.73;125638;1099;104191;-77
2021/03/06 02:16:22;;;;;;;8.50;3.50;;;;;;;3.04;67.21;100829.08;125627;1099;104178;-77
2021/03/06 02:18:57;;;;;;;6.60;3.20;;;;;;;3.01;66.48;100831.45;125596;1099;106811;-76
2021/03/06 02:21:36;;;;;;;7.77;3.70;;;;;;;3.02;66.61;100833.27;125639;1099;104625;-76
2021/03/06 02:24:31;;;;;;;8.30;3.60;;;;;;;3.05;66.55;100850.70;125615;1099;104172;-77
2021/03/06 02:27:21;;;;;;;11.17;4.40;;;;;;;3.07;66.74;100859.52;125593;1099;104586;-77
2021/03/06 02:29:57;;;;;;;9.80;4.07;;;;;;;3.06;65.89;100875.86;125608;1099;104172;-76
2021/03/06 02:32:28;;;;;;;8.20;3.87;;;;;;;3.02;66.72;100856.59;125648;1099;104172;-76
2021/03/06 02:35:09;;;;;;;11.03;4.00;;;;;;;2.99;66.27;100856.38;125650;1098;104414;-77
2021/03/06 02:37:42;;;;;;;10.27;4.33;;;;;;;2.97;66.15;100872.59;125582;1099;104290;-76
2021/03/06 02:40:14;;;;;;;11.60;4.33;;;;;;;2.96;66.31;100875.97;125624;1098;104204;-76
2021/03/06 02:42:44;;;;;;;9.13;4.03;;;;;;;2.94;66.84;100885.34;125645;1099;104233;-76
2021/03/06 02:45:18;;;;;;;10.70;4.30;;;;;;;2.91;65.99;100887.70;125613;1099;104175;-76
2021/03/06 02:47:48;;;;;;;15.50;4.80;;;;;;;2.88;66.10;100884.12;125633;1099;104766;-77
2021/03/06 02:50:17;;;;;;;10.13;4.13;;;;;;;2.92;65.61;100889.52;125611;1099;104293;-76
2021/03/06 02:52:46;;;;;;;12.33;4.30;;;;;;;2.93;66.52;100892.23;125628;1099;104172;-76
2021/03/06 02:55:16;;;;;;;10.20;4.37;;;;;;;2.89;66.28;100890.19;125610;1099;104213;-75
2021/03/06 02:58:06;;;;;;;9.37;4.27;;;;;;;2.88;65.85;100899.67;125561;1099;104291;-76
2021/03/06 03:00:41;;;;;;;14.20;4.70;;;;;;;2.91;65.93;100909.34;125606;1099;104175;-76
2021/03/06 03:03:30;;;;;;;9.93;4.00;;;;;;;2.87;65.86;100903.04;125629;1099;104172;-76
2021/03/06 03:06:11;;;;;;;10.13;3.60;;;;;;;2.85;66.36;100911.48;125662;1099;104232;-76
2021/03/06 03:08:51;;;;;;;9.87;3.67;;;;;;;2.83;66.12;100921.73;125631;1099;104166;-76
2021/03/06 03:11:28;;;;;;;6.87;3.20;;;;;;;2.84;66.75;100928.73;125644;1099;104163;-75
2021/03/06 03:13:58;;;;;;;9.57;4.10;;;;;;;2.80;66.33;100926.69;125656;1097;104163;-75
2021/03/06 03:16:35;;;;;;;9.63;4.23;;;;;;;2.80;66.25;100933.58;125584;1099;104201;-75
2021/03/06 03:19:09;;;;;;;11.47;4.20;;;;;;;2.79;66.30;100934.36;125635;1098;104263;-76
2021/03/06 03:21:44;;;;;;;11.77;4.40;;;;;;;2.76;66.35;100948.02;125646;1099;104210;-75
2021/03/06 03:24:13;;;;;;;;;;;;;;;2.70;66.60;100943.27;125709;1099;104166;-76
2021/03/06 03:26:47;;;;;;;12.57;4.90;;;;;;;2.70;66.24;100948.45;125590;1099;104174;-77
2021/03/06 03:29:17;;;;;;;13.85;4.60;;;;;;;2.76;66.05;100966.16;125585;1099;104201;-77
2021/03/06 03:31:49;;;;;;;14.07;4.50;;;;;;;2.72;66.36;100955.45;125647;1099;104213;-77
2021/03/06 03:34:21;;;;;;;13.03;4.73;;;;;;;2.70;66.29;100951.04;125625;1100;104194;-76
2021/03/06 03:36:52;;;;;;;12.50;4.20;;;;;;;2.70;66.67;100970.88;125655;1099;104306;-76
2021/03/06 03:39:21;;;;;;;13.70;5.00;;;;;;;2.74;66.32;100969.41;125607;1099;104323;-77
2021/03/06 03:41:50;;;;;;;13.27;5.10;;;;;;;2.77;65.92;100969.64;125555;1099;104242;-76
2021/03/06 03:44:21;;;;;;;17.73;5.40;;;;;;;2.78;65.97;100964.56;125648;1098;104360;-76
2021/03/06 03:46:50;;;;;;;17.83;5.17;;;;;;;2.73;66.32;100965.00;125626;1099;104248;-75
2021/03/06 03:49:21;;;;;;;16.67;5.40;;;;;;;2.66;66.52;100984.38;125637;1099;104613;-75
2021/03/06 03:51:58;;;;;;;16.07;5.23;;;;;;;2.58;66.01;100944.05;125586;1099;104309;-76
2021/03/06 03:54:27;;;;;;;20.00;5.53;;;;;;;2.52;66.22;100978.16;125574;1099;104255;-76
2021/03/06 03:56:56;;;;;;;16.10;5.80;;;;;;;2.46;66.11;100988.98;125657;1099;104715;-76
2021/03/06 03:59:27;;;;;;;16.77;5.93;;;;;;;2.44;66.23;100995.71;125627;1099;104303;-77
2021/03/06 04:01:56;;;;;;;14.70;5.50;;;;;;;2.43;66.67;100993.93;125661;1099;104182;-76
2021/03/06 04:04:30;;;;;;;14.40;5.50;;;;;;;2.38;66.56;101003.02;125639;1099;104438;-76
2021/03/06 04:07:01;;;;;;;16.50;5.70;;;;;;;2.34;66.24;101007.06;125630;1098;104233;-76
2021/03/06 04:09:30;;;;;;;14.70;4.97;;;;;;;2.33;66.21;101009.54;125667;1099;105094;-76
2021/03/06 04:11:59;;;;;;;13.63;4.77;;;;;;;2.31;66.05;101037.02;125649;1099;104248;-76
2021/03/06 04:14:28;;;;;;;13.93;5.03;;;;;;;2.29;66.13;101033.38;125615;1099;104289;-76
2021/03/06 04:16:58;;;;;;;11.07;4.60;;;;;;;2.25;66.32;101036.55;125702;1099;104200;-76
2021/03/06 04:19:26;;;;;;;13.93;5.30;;;;;;;2.23;66.50;101038.09;125567;1099;104163;-76
2021/03/06 04:21:55;;;;;;;14.83;5.13;;;;;;;2.23;66.54;101033.84;125575;1099;104277;-77
2021/03/06 04:24:24;;;;;;;14.23;4.90;;;;;;;2.23;66.22;101049.38;125608;1099;104251;-76
2021/03/06 04:26:53;;;;;;;11.57;4.87;;;;;;;2.14;66.32;101039.19;125661;1099;104353;-76
2021/03/06 04:29:22;;;;;;;11.27;4.60;;;;;;;2.12;66.23;101035.59;125646;1099;104204;-76
2021/03/06 04:31:51;;;;;;;12.47;4.33;;;;;;;2.11;66.00;101043.23;125607;1099;104297;-76
2021/03/06 04:34:20;;;;;;;10.87;4.60;;;;;;;2.05;66.04;101046.23;125630;1099;104301;-76
2021/03/06 04:36:49;;;;;;;11.57;4.93;;;;;;;2.04;66.32;101051.29;125602;1099;104233;-76
2021/03/06 04:39:17;;;;;;;10.00;4.67;;;;;;;2.02;65.73;101051.17;125632;1099;104163;-76
2021/03/06 04:41:46;;;;;;;11.33;4.77;;;;;;;2.04;66.34;101057.39;125638;1099;104284;-77
2021/03/06 04:44:15;;;;;;;10.93;4.70;;;;;;;2.06;66.05;101073.94;125582;1099;104178;-77
2021/03/06 04:46:44;;;;;;;14.07;5.73;;;;;;;2.06;65.84;101081.70;125610;1099;104207;-76
2021/03/06 04:49:13;;;;;;;10.40;4.53;;;;;;;2.06;66.21;101105.00;125637;1099;104172;-76
2021/03/06 04:51:42;;;;;;;16.13;5.73;;;;;;;2.00;66.33;101096.75;125637;1099;107214;-76
2021/03/06 04:54:12;;;;;;;14.73;5.20;;;;;;;2.00;66.14;101088.09;125649;1099;104299;-76
2021/03/06 04:56:41;;;;;;;14.20;5.37;;;;;;;1.98;66.44;101100.91;125626;1099;104303;-76
2021/03/06 04:59:10;;;;;;;13.07;5.07;;;;;;;1.97;66.20;101091.33;125631;1098;104180;-76
2021/03/06 05:01:38;;;;;;;13.20;5.10;;;;;;;1.95;65.73;101096.38;125603;1099;104576;-76
2021/03/06 05:04:07;;;;;;;12.03;4.53;;;;;;;1.93;66.24;101104.80;125624;1099;104211;-76
2021/03/06 05:06:36;;;;;;;8.87;4.17;;;;;;;1.91;65.94;101121.90;125611;1099;104185;-74
2021/03/06 05:09:05;;;;;;;16.93;4.83;;;;;;;1.88;65.56;101132.00;125600;1099;104271;-74
2021/03/06 05:11:35;;;;;;;11.80;4.53;;;;;;;1.86;66.26;101128.41;125632;1099;102842;-78
2021/03/06 05:14:04;;;;;;;13.43;4.60;;;;;;;1.85;65.90;101135.23;125660;1099;104782;-76
2021/03/06 05:16:33;;;;;;;15.93;4.50;;;;;;;1.82;65.79;101142.75;125624;1099;104284;-77
2021/03/06 05:19:02;;;;;;;11.10;3.93;;;;;;;1.78;66.05;101148.48;125634;1098;104313;-76
2021/03/06 05:21:31;;;;;;;8.87;3.73;;;;;;;1.78;65.77;101176.95;125564;1099;104307;-76
2021/03/06 05:24:03;;;;;;;11.33;4.10;;;;;;;1.77;65.24;101176.02;125632;1099;104192;-76
2021/03/06 05:26:33;;;;;;;11.67;4.03;;;;;;;1.80;65.55;101188.31;125556;1099;104274;-77
2021/03/06 05:29:02;;;;;;;10.40;3.90;;;;;;;1.82;65.87;101188.44;125623;1099;104178;-76
2021/03/06 05:31:31;;;;;;;7.87;4.00;;;;;;;1.85;65.28;101204.22;125623;1099;104166;-77
2021/03/06 05:34:00;;;;;;;8.43;3.07;;;;;;;1.86;65.45;101198.28;125601;1100;104191;-77
2021/03/06 05:36:30;;;;;;;7.33;3.30;;;;;;;1.86;65.69;101211.22;125631;1099;105722;-76
2021/03/06 05:38:59;;;;;;;12.00;4.57;;;;;;;1.86;65.53;101211.22;125622;1098;104293;-76
2021/03/06 05:41:28;;;;;;;9.37;4.00;;;;;;;1.86;65.81;101219.87;125637;1099;104178;-76
2021/03/06 05:43:59;;;;;;;8.70;3.80;;;;;;;1.85;65.68;101217.16;125615;1099;104307;-76
2021/03/06 05:46:28;;;;;;;7.60;3.20;;;;;;;1.83;65.38;101236.84;125597;1099;104201;-77
2021/03/06 05:48:57;;;;;;;6.13;3.00;;;;;;;1.82;65.50;101240.20;125596;1099;104284;-76
2021/03/06 05:51:26;;;;;;;5.77;2.93;;;;;;;1.82;65.35;101250.55;125572;1099;104168;-76
2021/03/06 05:53:56;;;;;;;6.17;3.63;;;;;;;1.83;65.40;101247.20;125667;1099;104176;-76
2021/03/06 05:56:25;;;;;;;11.53;3.87;;;;;;;1.82;65.70;101246.27;125632;1099;104239;-76
2021/03/06 05:58:55;;;;;;;11.30;4.03;;;;;;;1.80;65.74;101256.50;125609;1096;104293;-76
2021/03/06 06:01:24;;;;;;;12.70;4.87;;;;;;;1.79;65.58;101275.41;125590;1099;102864;-77
2021/03/06 06:03:54;;;;;;;14.67;5.93;;;;;;;1.78;65.24;101276.17;125629;1099;104178;-76
2021/03/06 06:06:23;;;;;;;16.90;6.43;;;;;;;1.78;65.70;101281.34;125648;1099;104200;-76
2021/03/06 06:08:52;;;;;;;15.67;5.90;;;;;;;1.88;65.78;101287.30;125578;1099;104357;-76
2021/03/06 06:11:21;;;;;;;14.93;5.53;;;;;;;1.90;65.49;101272.78;125596;1097;104172;-76
2021/03/06 06:13:50;;;;;;;14.33;6.27;;;;;;;1.89;65.97;101273.59;125624;1096;104287;-76
2021/03/06 06:16:21;;;;;;;13.50;5.13;;;;;;;1.86;65.70;101281.09;125654;1097;104300;-76
2021/03/06 06:18:50;;;;;;;14.00;5.00;;;;;;;1.85;65.67;101297.39;125636;1099;104207;-76
2021/03/06 06:21:43;;;;;;;14.43;5.10;;;;;;;1.88;66.45;101292.47;125620;1099;104165;-76
2021/03/06 06:24:14;;;;;;;14.73;5.37;;;;;;;1.92;65.76;101304.91;125609;1099;104229;-76
2021/03/06 06:26:54;;;;;;;14.40;5.70;;;;;;;2.00;66.44;101313.30;125655;1099;104172;-76
2021/03/06 06:29:37;;;;;;;14.00;5.53;;;;;;;2.12;65.66;101315.22;125660;1098;104175;-76
2021/03/06 06:32:07;;;;;;;11.17;4.80;;;;;;;2.16;65.77;101317.25;125590;1099;104616;-76
2021/03/06 06:34:37;;;;;;;17.17;5.40;;;;;;;2.22;66.22;101321.16;125642;1098;105160;-75
2021/03/06 06:37:12;;;;;;;12.00;4.30;;;;;;;2.30;66.14;101340.80;125588;1099;104300;-74
2021/03/06 06:39:42;;;;;;;10.73;4.73;;;;;;;2.28;65.89;101332.91;125612;1099;104171;-74
2021/03/06 06:42:11;;;;;;;9.97;4.43;;;;;;;2.32;66.10;101329.80;125621;1097;104393;-75
2021/03/06 06:44:53;;;;;;;9.67;4.67;;;;;;;2.42;66.18;101338.33;125673;1099;104178;-76
2021/03/06 06:47:23;;;;;;;10.97;4.53;;;;;;;2.54;66.17;101338.41;125596;1099;104399;-76
2021/03/06 06:49:54;;;;;;;9.70;4.50;;;;;;;2.61;66.10;101330.36;125641;1099;104175;-76
2021/03/06 06:52:25;;;;;;;13.07;4.70;;;;;;;2.73;65.92;101323.57;125633;1099;104222;-76
2021/03/06 06:54:55;;;;;;;8.97;4.50;;;;;;;2.76;65.72;101322.89;125647;1099;104210;-76
2021/03/06 06:57:25;;;;;;;12.73;5.03;;;;;;;2.82;65.32;101329.49;125646;1099;104210;-76
2021/03/06 06:59:56;;;;;;;11.90;4.60;;;;;;;2.89;65.11;101330.88;125648;1099;104172;-76
2021/03/06 07:02:26;;;;;;;9.97;4.50;;;;;;;3.00;65.42;101340.41;125577;1099;104230;-76
2021/03/06 07:04:57;;;;;;;13.60;4.73;;;;;;;3.06;65.68;101342.59;125650;1099;104220;-76
2021/03/06 07:07:35;;;;;;;14.07;4.40;;;;;;;3.12;64.31;101365.53;125663;1099;104169;-76
2021/03/06 07:10:09;;;;;;;12.33;4.73;;;;;;;3.03;64.26;101353.61;125659;1097;104220;-76
2021/03/06 07:12:42;;;;;;;14.87;5.40;;;;;;;3.00;65.13;101349.89;125585;1099;104293;-76
2021/03/06 07:15:17;;;;;;;16.43;5.87;;;;;;;3.09;65.01;101354.91;125615;1099;104224;-76
2021/03/06 07:17:47;;;;;;;13.90;4.40;;;;;;;3.06;63.83;101340.89;125660;1099;104232;-76
2021/03/06 07:20:35;;;;;;;11.40;4.17;;;;;;;3.04;64.07;101358.03;125677;1096;104168;-76
2021/03/06 07:23:16;;;;;;;11.67;4.63;;;;;;;3.12;64.40;101368.13;125668;1099;104178;-76
2021/03/06 07:25:45;;;;;;;12.40;4.23;;;;;;;3.15;63.49;101379.63;125678;1099;104172;-76
2021/03/06 07:28:14;;;;;;;12.50;4.47;;;;;;;3.17;64.54;101356.41;125603;1099;104765;-76
2021/03/06 07:30:43;;;;;;;9.13;4.33;;;;;;;3.19;63.39;101360.91;125623;1099;104252;-76
2021/03/06 07:33:16;;;;;;;12.37;4.40;;;;;;;3.19;63.85;101366.09;125587;1099;104297;-76
2021/03/06 07:35:48;;;;;;;10.53;3.93;;;;;;;3.18;63.12;101374.69;125619;1099;104238;-76
2021/03/06 07:38:22;;;;;;;12.93;4.50;;;;;;;3.16;63.89;101359.77;125627;1098;104233;-76
2021/03/06 07:40:56;;;;;;;13.80;4.73;;;;;;;3.17;62.83;101359.90;125588;1099;104181;-77
2021/03/06 07:43:30;;;;;;;12.23;4.80;;;;;;;3.25;63.05;101383.85;125584;1099;104182;-77
2021/03/06 07:46:00;;;;;;;12.47;4.75;;;;;;;3.26;62.95;101363.99;125553;1098;104238;-76
2021/03/06 07:48:37;;;;;;;13.20;4.00;;;;;;;3.29;62.75;101377.20;125501;1097;105924;-77
2021/03/06 07:51:06;;;;;;;18.27;5.50;;;;;;;3.30;62.33;101376.44;125548;1099;104350;-77
2021/03/06 07:53:37;;;;;;;7.97;3.87;;;;;;;3.35;61.91;101388.06;125580;1099;104284;-76
2021/03/06 07:56:08;;;;;;;14.17;4.60;;;;;;;3.39;61.45;101395.31;125661;1099;104168;-76
2021/03/06 07:58:48;;;;;;;8.37;3.67;;;;;;;3.38;61.17;101385.71;125637;1099;104172;-76
2021/03/06 08:01:28;;;;;;;13.00;4.67;;;;;;;3.39;61.08;101397.91;125640;1098;104296;-76
2021/03/06 08:03:58;;;;;;;11.70;4.60;;;;;;;3.45;61.57;101390.61;125606;1099;105427;-77
2021/03/06 08:06:28;;;;;;;7.67;3.50;;;;;;;3.56;61.80;101410.52;125605;1099;104248;-77
2021/03/06 08:09:05;;;;;;;6.63;3.47;;;;;;;3.62;61.44;101417.89;125666;1099;104172;-76
2021/03/06 08:11:43;;;;;;;6.13;3.10;;;;;;;3.71;61.54;101420.27;125680;1099;104213;-77
2021/03/06 08:14:27;;;;;;;10.17;3.80;;;;;;;3.83;60.79;101412.55;125668;1099;104185;-77
2021/03/06 08:16:56;;;;;;;10.27;3.93;;;;;;;3.88;60.24;101419.92;125667;1099;104159;-76
2021/03/06 08:19:31;;;;;;;12.63;3.37;;;;;;;3.89;60.38;101424.30;125590;1098;104169;-76
2021/03/06 08:22:16;;;;;;;11.53;3.73;;;;;;;4.00;59.89;101422.53;125579;1099;104325;-76
2021/03/06 08:24:47;;;;;;;11.53;3.30;;;;;;;4.14;59.36;101426.19;125532;1099;104249;-76
2021/03/06 08:27:23;;;;;;;8.90;4.00;;;;;;;4.27;57.02;101434.14;125623;1099;104203;-76
2021/03/06 08:29:55;;;;;;;7.47;3.10;;;;;;;4.28;58.45;101427.23;125625;1098;104178;-76
2021/03/06 08:32:39;;;;;;;7.95;2.90;;;;;;;4.30;59.48;101441.24;125642;1097;104211;-76
2021/03/06 08:35:24;;;;;;;6.45;2.95;;;;;;;4.28;58.13;101430.73;125637;1098;105430;-76
2021/03/06 08:37:53;;;;;;;5.43;2.40;;;;;;;4.16;57.02;101428.91;125631;1096;104185;-76
2021/03/06 08:40:27;;;;;;;6.30;2.77;;;;;;;4.10;57.42;101443.24;125646;1099;104172;-76
2021/03/06 08:42:57;;;;;;;6.73;3.27;;;;;;;4.20;57.36;101444.84;125642;1099;104297;-76
2021/03/06 08:45:28;;;;;;;7.07;2.90;;;;;;;4.30;57.62;101433.45;125594;1099;104294;-76
2021/03/06 08:47:59;;;;;;;7.33;3.13;;;;;;;4.47;57.73;101447.72;125609;1098;104169;-77
2021/03/06 08:50:30;;;;;;;7.23;2.47;;;;;;;4.53;56.78;101448.17;125603;1097;104175;-76
2021/03/06 08:53:01;;;;;;;4.50;2.50;;;;;;;4.48;54.95;101457.34;125671;1099;104225;-77
2021/03/06 08:55:32;;;;;;;9.25;2.60;;;;;;;4.46;54.85;101448.53;125604;1097;104207;-77
2021/03/06 08:58:05;;;;;;;9.00;3.13;;;;;;;4.44;55.84;101457.88;125588;1099;104172;-76
2021/03/06 09:00:36;;;;;;;6.33;2.37;;;;;;;4.42;55.28;101462.96;125651;1099;104172;-76
2021/03/06 09:03:16;;;;;;;6.40;2.07;;;;;;;4.48;55.60;101463.43;125641;1099;104297;-77
2021/03/06 09:05:48;;;;;;;8.23;2.50;;;;;;;4.56;56.16;101464.00;125658;1099;104168;-76
2021/03/06 09:08:21;;;;;;;7.50;2.60;;;;;;;4.66;55.51;101476.03;125660;1099;104387;-76
2021/03/06 09:10:52;;;;;;;9.63;2.57;;;;;;;4.63;54.67;101475.80;125641;1099;104370;-76
2021/03/06 09:13:23;;;;;;;5.27;2.13;;;;;;;4.59;53.30;101481.55;125643;1099;104012;-76
2021/03/06 09:15:54;;;;;;;7.17;2.40;;;;;;;4.57;54.63;101473.63;125643;1099;104179;-76
2021/03/06 09:18:25;;;;;;;7.23;3.00;;;;;;;4.67;53.95;101496.02;125671;1099;104201;-76
2021/03/06 09:20:57;;;;;;;5.40;2.33;;;;;;;4.65;51.90;101498.50;125642;1098;104297;-76
2021/03/06 09:23:30;;;;;;;6.43;2.63;;;;;;;4.62;52.64;101495.66;125656;1097;104172;-75
2021/03/06 09:26:04;;;;;;;8.57;2.40;;;;;;;4.63;52.64;101488.80;125560;1099;104300;-76
2021/03/06 09:28:34;;;;;;;7.67;2.30;;;;;;;4.59;51.82;101495.43;125629;1096;104242;-77
2021/03/06 09:31:09;;;;;;;2.80;1.83;;;;;;;4.63;52.40;101500.09;125652;1099;104252;-76
2021/03/06 09:33:40;;;;;;;3.40;2.10;;;;;;;4.61;51.37;101491.28;125620;1099;104249;-76
2021/03/06 09:36:11;;;;;;;5.20;2.27;;;;;;;4.57;50.80;101499.62;125616;1099;104201;-76
2021/03/06 09:38:51;;;;;;;5.47;2.33;;;;;;;4.61;51.40;101486.08;125653;1099;104171;-76
2021/03/06 09:41:22;;;;;;;5.80;2.50;;;;;;;4.76;51.51;101482.81;125649;1099;104197;-76
2021/03/06 09:43:52;;;;;;;5.17;2.60;;;;;;;4.83;52.52;101490.26;125672;1099;104173;-77
2021/03/06 09:46:27;;;;;;;5.17;2.43;;;;;;;4.98;50.60;101488.80;125565;1099;104262;-77
2021/03/06 09:48:59;;;;;;;9.17;2.63;;;;;;;5.02;51.04;101497.76;125632;1099;104319;-76
2021/03/06 09:51:40;;;;;;;3.95;1.90;;;;;;;4.94;50.13;101510.19;125648;1099;104185;-77
2021/03/06 09:54:10;;;;;;;5.90;2.70;;;;;;;4.89;50.34;101506.32;125636;1099;104233;-77
2021/03/06 09:56:48;;;;;;;7.83;2.57;;;;;;;4.92;50.63;101503.05;125666;1099;104335;-77
2021/03/06 09:59:16;;;;;;;5.50;2.03;;;;;;;4.90;50.82;101502.94;125675;1097;104178;-76
2021/03/06 10:01:46;;;;;;;4.43;2.00;;;;;;;4.84;50.25;101507.69;125607;1099;104293;-77
2021/03/06 10:04:18;;;;;;;5.23;2.30;;;;;;;4.84;49.25;101513.78;125661;1099;104206;-77
2021/03/06 10:06:49;;;;;;;3.80;2.17;;;;;;;4.83;47.96;101531.87;125631;1099;104363;-77
2021/03/06 10:09:20;;;;;;;5.47;1.93;;;;;;;4.76;47.50;101527.02;125653;1099;104198;-77
2021/03/06 10:11:52;;;;;;;4.30;2.03;;;;;;;4.60;49.39;101512.85;125576;1099;104370;-77
2021/03/06 10:14:22;;;;;;;5.67;1.90;;;;;;;4.49;45.82;101521.54;125593;1099;104178;-77
2021/03/06 10:16:53;;;;;;;6.23;1.83;;;;;;;4.32;48.59;101523.73;125645;1099;104059;-76
2021/03/06 10:19:25;;;;;;;7.10;2.03;;;;;;;4.44;48.73;101520.26;125644;1099;104197;-76
2021/03/06 10:22:05;;;;;;;4.10;2.10;;;;;;;4.50;47.64;101516.45;125635;1099;104197;-77
2021/03/06 10:24:51;;;;;;;4.93;2.00;;;;;;;4.60;48.91;101514.56;125641;1099;104279;-77
2021/03/06 10:27:34;;;;;;;1.93;1.73;;;;;;;4.70;45.11;101513.55;125625;1099;104165;-76
2021/03/06 10:30:15;;;;;;;2.70;1.73;;;;;;;4.63;45.68;101523.48;125626;1099;104310;-76
2021/03/06 10:32:46;;;;;;;4.33;2.07;;;;;;;4.56;45.52;101515.10;125317;1099;104223;-77
2021/03/06 10:35:39;;;;;;;7.35;2.10;;;;;;;4.26;43.77;101520.66;125653;1099;104303;-77
2021/03/06 10:38:10;;;;;;;12.27;2.57;;;;;;;4.26;45.79;101525.86;125617;1099;105380;-76
2021/03/06 10:40:51;;;;;;;4.67;1.87;;;;;;;4.36;46.40;101518.77;125588;1099;104310;-77
2021/03/06 10:43:32;;;;;;;3.50;1.83;;;;;;;4.45;45.53;101507.38;125636;1099;104204;-76
2021/03/06 10:46:13;;;;;;;6.37;2.40;;;;;;;4.50;46.07;101510.33;125629;1099;104178;-77
2021/03/06 10:48:43;;;;;;;2.77;1.43;;;;;;;4.56;44.63;101520.30;125602;1099;104284;-77
2021/03/06 10:51:12;;;;;;;10.07;1.77;;;;;;;4.60;45.62;101511.96;125612;1099;104297;-76
2021/03/06 10:53:42;;;;;;;4.87;2.13;;;;;;;4.67;45.63;101509.02;125572;1099;104275;-77
2021/03/06 10:56:21;;;;;;;6.75;1.90;;;;;;;4.72;43.11;101514.56;125617;1099;104175;-76
2021/03/06 10:58:50;;;;;;;3.67;1.60;;;;;;;4.68;43.82;101519.53;125618;1099;104287;-76
2021/03/06 11:01:19;;;;;;;1.70;1.20;;;;;;;4.71;41.45;101528.37;125653;1098;104198;-76
2021/03/06 11:03:50;;;;;;;5.07;1.83;;;;;;;4.63;42.51;101510.48;125659;1098;104242;-77
2021/03/06 11:06:19;;;;;;;4.15;1.90;;;;;;;4.62;41.67;101534.66;125604;1099;104254;-76
2021/03/06 11:09:01;;;;;;;4.53;1.83;;;;;;;4.60;44.09;101525.85;125639;1099;104169;-77
2021/03/06 11:11:30;;;;;;;4.53;1.43;;;;;;;4.64;41.24;101517.51;125683;1099;104274;-76
2021/03/06 11:14:00;;;;;;;5.70;2.10;;;;;;;4.67;42.53;101509.94;125676;1099;104175;-77
2021/03/06 11:16:40;;;;;;;5.43;1.77;;;;;;;4.78;41.57;101521.12;125624;1099;104341;-77
2021/03/06 11:19:09;;;;;;;5.97;2.07;;;;;;;4.68;40.65;101524.73;125592;1099;104168;-76
2021/03/06 11:21:38;;;;;;;4.30;1.50;;;;;;;4.62;39.25;101529.46;125635;1099;105101;-76
2021/03/06 11:24:08;;;;;;;8.30;1.70;;;;;;;4.65;41.63;101518.41;125638;1099;104300;-76
2021/03/06 11:26:39;;;;;;;3.87;1.87;;;;;;;4.73;40.91;101531.98;125619;1099;104171;-76
2021/03/06 11:29:08;;;;;;;4.93;1.60;;;;;;;4.66;40.42;101528.92;125589;1099;104175;-76
2021/03/06 11:31:37;;;;;;;3.73;1.87;;;;;;;4.61;38.03;101522.47;125623;1099;104354;-77
2021/03/06 11:34:06;;;;;;;7.20;2.07;;;;;;;4.60;41.19;101520.66;125664;1099;104171;-77
2021/03/06 11:36:35;;;;;;;5.03;1.80;;;;;;;4.50;41.02;101531.13;125703;1099;104175;-76